sensor_id;sensor_type;location;lat;lon;timestamp;P1;durP1;ratioP1;P2;durP2;ratioP2
56319;SDS011;42226;42.382;23.748;2024-02-26T00:01:04;27.13;;;21.27;;
56319;SDS011;42226;42.382;23.748;2024-02-26T00:03:32;28.45;;;21.65;;
56319;SDS011;42226;42.382;23.748;2024-02-26T00:06:01;27.40;;;22.45;;
56319;SDS011;42226;42.382;23.748;2024-02-26T00:08:28;30.80;;;22.55;;
56319;SDS011;42226;42.382;23.748;2024-02-26T00:10:56;26.38;;;21.95;;
56319;SDS011;42226;42.382;23.748;2024-02-26T00:13:23;29.00;;;20.92;;
56319;SDS011;42226;42.382;23.748;2024-02-26T00:15:51;30.33;;;21.92;;
56319;SDS011;42226;42.382;23.748;2024-02-26T00:18:18;31.05;;;22.08;;
56319;SDS011;42226;42.382;23.748;2024-02-26T00:20:46;30.30;;;22.25;;
56319;SDS011;42226;42.382;23.748;2024-02-26T00:23:14;32.67;;;24.27;;
56319;SDS011;42226;42.382;23.748;2024-02-26T00:25:41;30.80;;;22.92;;
56319;SDS011;42226;42.382;23.748;2024-02-26T00:28:09;31.33;;;23.65;;
56319;SDS011;42226;42.382;23.748;2024-02-26T00:30:47;25.75;;;21.20;;
56319;SDS011;42226;42.382;23.748;2024-02-26T00:33:16;26.83;;;21.60;;
56319;SDS011;42226;42.382;23.748;2024-02-26T00:35:43;33.10;;;23.05;;
56319;SDS011;42226;42.382;23.748;2024-02-26T00:38:10;28.55;;;22.92;;
56319;SDS011;42226;42.382;23.748;2024-02-26T00:40:38;31.58;;;22.88;;
56319;SDS011;42226;42.382;23.748;2024-02-26T00:48:41;28.30;;;21.17;;
56319;SDS011;42226;42.382;23.748;2024-02-26T00:51:08;29.25;;;21.40;;
56319;SDS011;42226;42.382;23.748;2024-02-26T00:53:34;30.55;;;22.10;;
56319;SDS011;42226;42.382;23.748;2024-02-26T00:56:01;29.17;;;21.27;;
56319;SDS011;42226;42.382;23.748;2024-02-26T00:58:30;27.00;;;21.88;;
56319;SDS011;42226;42.382;23.748;2024-02-26T01:00:59;28.90;;;23.60;;
56319;SDS011;42226;42.382;23.748;2024-02-26T01:03:26;29.65;;;22.60;;
56319;SDS011;42226;42.382;23.748;2024-02-26T01:05:54;32.10;;;23.05;;
56319;SDS011;42226;42.382;23.748;2024-02-26T01:08:21;31.48;;;23.02;;
56319;SDS011;42226;42.382;23.748;2024-02-26T01:10:49;28.58;;;21.10;;
56319;SDS011;42226;42.382;23.748;2024-02-26T01:13:16;29.40;;;22.73;;
56319;SDS011;42226;42.382;23.748;2024-02-26T01:15:43;31.85;;;22.40;;
56319;SDS011;42226;42.382;23.748;2024-02-26T01:18:09;28.95;;;23.63;;
56319;SDS011;42226;42.382;23.748;2024-02-26T01:20:38;27.10;;;22.23;;
56319;SDS011;42226;42.382;23.748;2024-02-26T01:23:05;32.08;;;22.83;;
56319;SDS011;42226;42.382;23.748;2024-02-26T01:25:32;28.98;;;24.98;;
56319;SDS011;42226;42.382;23.748;2024-02-26T01:28:00;36.08;;;23.13;;
56319;SDS011;42226;42.382;23.748;2024-02-26T01:30:27;37.38;;;25.02;;
56319;SDS011;42226;42.382;23.748;2024-02-26T01:32:55;31.98;;;23.98;;
56319;SDS011;42226;42.382;23.748;2024-02-26T01:35:22;35.13;;;25.48;;
56319;SDS011;42226;42.382;23.748;2024-02-26T01:37:52;34.90;;;25.17;;
56319;SDS011;42226;42.382;23.748;2024-02-26T01:40:19;39.47;;;25.60;;
56319;SDS011;42226;42.382;23.748;2024-02-26T01:42:47;36.72;;;28.00;;
56319;SDS011;42226;42.382;23.748;2024-02-26T01:45:15;32.15;;;22.60;;
56319;SDS011;42226;42.382;23.748;2024-02-26T01:47:52;28.63;;;22.30;;
56319;SDS011;42226;42.382;23.748;2024-02-26T01:50:19;29.38;;;23.77;;
56319;SDS011;42226;42.382;23.748;2024-02-26T01:52:51;28.20;;;21.90;;
56319;SDS011;42226;42.382;23.748;2024-02-26T01:55:19;31.95;;;22.60;;
56319;SDS011;42226;42.382;23.748;2024-02-26T01:57:49;28.45;;;22.10;;
56319;SDS011;42226;42.382;23.748;2024-02-26T02:00:17;29.95;;;22.23;;
56319;SDS011;42226;42.382;23.748;2024-02-26T02:02:48;28.20;;;22.05;;
56319;SDS011;42226;42.382;23.748;2024-02-26T02:05:20;32.63;;;22.85;;
56319;SDS011;42226;42.382;23.748;2024-02-26T02:07:48;33.28;;;23.67;;
56319;SDS011;42226;42.382;23.748;2024-02-26T02:10:16;26.42;;;22.17;;
56319;SDS011;42226;42.382;23.748;2024-02-26T02:12:49;28.50;;;20.92;;
56319;SDS011;42226;42.382;23.748;2024-02-26T02:15:15;28.42;;;19.85;;
56319;SDS011;42226;42.382;23.748;2024-02-26T02:17:43;25.77;;;20.67;;
56319;SDS011;42226;42.382;23.748;2024-02-26T02:20:16;22.55;;;19.75;;
56319;SDS011;42226;42.382;23.748;2024-02-26T02:22:45;24.90;;;20.63;;
56319;SDS011;42226;42.382;23.748;2024-02-26T02:25:12;26.08;;;19.92;;
56319;SDS011;42226;42.382;23.748;2024-02-26T02:27:40;22.70;;;18.08;;
56319;SDS011;42226;42.382;23.748;2024-02-26T02:30:08;23.38;;;19.17;;
56319;SDS011;42226;42.382;23.748;2024-02-26T02:32:37;23.20;;;19.55;;
56319;SDS011;42226;42.382;23.748;2024-02-26T02:35:09;22.70;;;18.92;;
56319;SDS011;42226;42.382;23.748;2024-02-26T02:37:37;27.17;;;19.92;;
56319;SDS011;42226;42.382;23.748;2024-02-26T02:40:04;23.05;;;19.25;;
56319;SDS011;42226;42.382;23.748;2024-02-26T02:42:32;23.73;;;18.52;;
56319;SDS011;42226;42.382;23.748;2024-02-26T02:44:59;24.92;;;18.30;;
56319;SDS011;42226;42.382;23.748;2024-02-26T02:47:25;21.98;;;18.13;;
56319;SDS011;42226;42.382;23.748;2024-02-26T02:49:53;21.63;;;18.98;;
56319;SDS011;42226;42.382;23.748;2024-02-26T02:52:19;24.80;;;18.63;;
56319;SDS011;42226;42.382;23.748;2024-02-26T02:54:47;20.63;;;17.05;;
56319;SDS011;42226;42.382;23.748;2024-02-26T02:57:14;20.98;;;16.05;;
56319;SDS011;42226;42.382;23.748;2024-02-26T02:59:41;21.98;;;18.02;;
56319;SDS011;42226;42.382;23.748;2024-02-26T03:02:09;20.17;;;15.35;;
56319;SDS011;42226;42.382;23.748;2024-02-26T03:04:36;21.17;;;15.38;;
56319;SDS011;42226;42.382;23.748;2024-02-26T03:07:03;20.02;;;16.67;;
56319;SDS011;42226;42.382;23.748;2024-02-26T03:09:30;19.05;;;16.90;;
56319;SDS011;42226;42.382;23.748;2024-02-26T03:11:58;18.95;;;16.63;;
56319;SDS011;42226;42.382;23.748;2024-02-26T03:14:24;19.38;;;15.43;;
56319;SDS011;42226;42.382;23.748;2024-02-26T03:16:56;18.92;;;16.70;;
56319;SDS011;42226;42.382;23.748;2024-02-26T03:19:24;18.88;;;16.45;;
56319;SDS011;42226;42.382;23.748;2024-02-26T03:21:51;21.02;;;14.95;;
56319;SDS011;42226;42.382;23.748;2024-02-26T03:24:18;20.15;;;16.15;;
56319;SDS011;42226;42.382;23.748;2024-02-26T03:26:46;17.70;;;15.80;;
56319;SDS011;42226;42.382;23.748;2024-02-26T03:29:13;17.15;;;15.32;;
56319;SDS011;42226;42.382;23.748;2024-02-26T03:31:40;16.40;;;13.77;;
56319;SDS011;42226;42.382;23.748;2024-02-26T03:34:07;19.02;;;15.68;;
56319;SDS011;42226;42.382;23.748;2024-02-26T03:36:34;17.52;;;15.75;;
56319;SDS011;42226;42.382;23.748;2024-02-26T03:39:02;18.25;;;15.05;;
56319;SDS011;42226;42.382;23.748;2024-02-26T03:41:32;17.80;;;14.27;;
56319;SDS011;42226;42.382;23.748;2024-02-26T03:44:01;17.20;;;15.48;;
56319;SDS011;42226;42.382;23.748;2024-02-26T03:46:28;18.85;;;14.82;;
56319;SDS011;42226;42.382;23.748;2024-02-26T03:48:55;19.13;;;14.85;;
56319;SDS011;42226;42.382;23.748;2024-02-26T03:51:23;18.20;;;15.27;;
56319;SDS011;42226;42.382;23.748;2024-02-26T03:53:51;20.35;;;15.52;;
56319;SDS011;42226;42.382;23.748;2024-02-26T03:56:18;24.65;;;17.75;;
56319;SDS011;42226;42.382;23.748;2024-02-26T03:58:45;17.80;;;14.60;;
56319;SDS011;42226;42.382;23.748;2024-02-26T04:01:13;19.75;;;15.50;;
56319;SDS011;42226;42.382;23.748;2024-02-26T04:03:39;20.27;;;15.32;;
56319;SDS011;42226;42.382;23.748;2024-02-26T04:06:10;19.27;;;14.10;;
56319;SDS011;42226;42.382;23.748;2024-02-26T04:08:40;17.50;;;13.32;;
56319;SDS011;42226;42.382;23.748;2024-02-26T04:11:08;18.33;;;14.38;;
56319;SDS011;42226;42.382;23.748;2024-02-26T04:13:35;17.15;;;13.93;;
56319;SDS011;42226;42.382;23.748;2024-02-26T04:16:05;18.38;;;14.95;;
56319;SDS011;42226;42.382;23.748;2024-02-26T04:18:33;18.88;;;14.77;;
56319;SDS011;42226;42.382;23.748;2024-02-26T04:21:00;15.65;;;13.90;;
56319;SDS011;42226;42.382;23.748;2024-02-26T04:23:28;17.08;;;13.85;;
56319;SDS011;42226;42.382;23.748;2024-02-26T04:25:55;16.83;;;13.70;;
56319;SDS011;42226;42.382;23.748;2024-02-26T04:28:23;18.90;;;13.68;;
56319;SDS011;42226;42.382;23.748;2024-02-26T04:30:55;17.42;;;14.27;;
56319;SDS011;42226;42.382;23.748;2024-02-26T04:33:23;16.17;;;14.40;;
56319;SDS011;42226;42.382;23.748;2024-02-26T04:35:49;20.77;;;14.35;;
56319;SDS011;42226;42.382;23.748;2024-02-26T04:38:18;15.68;;;13.23;;
56319;SDS011;42226;42.382;23.748;2024-02-26T04:43:46;17.95;;;14.00;;
56319;SDS011;42226;42.382;23.748;2024-02-26T04:46:13;15.45;;;12.80;;
56319;SDS011;42226;42.382;23.748;2024-02-26T04:48:40;19.55;;;14.57;;
56319;SDS011;42226;42.382;23.748;2024-02-26T04:51:08;14.63;;;13.13;;
56319;SDS011;42226;42.382;23.748;2024-02-26T04:53:36;14.52;;;13.00;;
56319;SDS011;42226;42.382;23.748;2024-02-26T04:56:03;14.90;;;13.40;;
56319;SDS011;42226;42.382;23.748;2024-02-26T04:58:31;17.83;;;13.65;;
56319;SDS011;42226;42.382;23.748;2024-02-26T05:00:59;15.75;;;13.48;;
56319;SDS011;42226;42.382;23.748;2024-02-26T05:03:27;16.67;;;13.57;;
56319;SDS011;42226;42.382;23.748;2024-02-26T05:05:54;15.88;;;13.07;;
56319;SDS011;42226;42.382;23.748;2024-02-26T05:08:23;17.67;;;13.38;;
56319;SDS011;42226;42.382;23.748;2024-02-26T05:10:50;14.80;;;12.45;;
56319;SDS011;42226;42.382;23.748;2024-02-26T05:13:18;19.40;;;14.40;;
56319;SDS011;42226;42.382;23.748;2024-02-26T05:15:44;13.70;;;12.20;;
56319;SDS011;42226;42.382;23.748;2024-02-26T05:18:15;14.07;;;12.48;;
56319;SDS011;42226;42.382;23.748;2024-02-26T05:20:42;13.50;;;12.07;;
56319;SDS011;42226;42.382;23.748;2024-02-26T05:23:09;15.05;;;12.55;;
56319;SDS011;42226;42.382;23.748;2024-02-26T05:25:36;13.48;;;12.18;;
56319;SDS011;42226;42.382;23.748;2024-02-26T05:28:03;14.00;;;12.60;;
56319;SDS011;42226;42.382;23.748;2024-02-26T05:30:31;14.02;;;12.52;;
56319;SDS011;42226;42.382;23.748;2024-02-26T05:32:59;14.77;;;11.93;;
56319;SDS011;42226;42.382;23.748;2024-02-26T05:35:26;14.32;;;12.80;;
56319;SDS011;42226;42.382;23.748;2024-02-26T05:37:53;16.17;;;13.25;;
56319;SDS011;42226;42.382;23.748;2024-02-26T05:40:20;18.63;;;13.00;;
56319;SDS011;42226;42.382;23.748;2024-02-26T05:42:47;14.30;;;12.80;;
56319;SDS011;42226;42.382;23.748;2024-02-26T05:45:14;14.10;;;12.35;;
56319;SDS011;42226;42.382;23.748;2024-02-26T05:47:42;14.68;;;13.00;;
56319;SDS011;42226;42.382;23.748;2024-02-26T05:50:11;13.63;;;12.05;;
56319;SDS011;42226;42.382;23.748;2024-02-26T05:52:47;17.75;;;13.55;;
56319;SDS011;42226;42.382;23.748;2024-02-26T05:57:42;15.80;;;12.68;;
56319;SDS011;42226;42.382;23.748;2024-02-26T06:00:10;12.70;;;11.32;;
56319;SDS011;42226;42.382;23.748;2024-02-26T06:02:38;14.77;;;12.20;;
56319;SDS011;42226;42.382;23.748;2024-02-26T06:05:05;14.40;;;11.93;;
56319;SDS011;42226;42.382;23.748;2024-02-26T06:07:52;15.13;;;12.13;;
56319;SDS011;42226;42.382;23.748;2024-02-26T06:10:20;14.18;;;12.63;;
56319;SDS011;42226;42.382;23.748;2024-02-26T06:12:47;13.50;;;11.82;;
56319;SDS011;42226;42.382;23.748;2024-02-26T06:15:15;14.70;;;13.23;;
56319;SDS011;42226;42.382;23.748;2024-02-26T06:17:43;14.70;;;12.35;;
56319;SDS011;42226;42.382;23.748;2024-02-26T06:23:51;15.30;;;13.57;;
56319;SDS011;42226;42.382;23.748;2024-02-26T06:26:19;16.10;;;13.77;;
56319;SDS011;42226;42.382;23.748;2024-02-26T06:28:45;17.08;;;14.50;;
56319;SDS011;42226;42.382;23.748;2024-02-26T06:31:12;14.88;;;13.27;;
56319;SDS011;42226;42.382;23.748;2024-02-26T06:33:55;15.18;;;13.00;;
56319;SDS011;42226;42.382;23.748;2024-02-26T06:36:22;15.60;;;13.95;;
56319;SDS011;42226;42.382;23.748;2024-02-26T06:38:49;14.55;;;13.10;;
56319;SDS011;42226;42.382;23.748;2024-02-26T06:41:19;14.80;;;13.20;;
56319;SDS011;42226;42.382;23.748;2024-02-26T06:43:47;16.70;;;13.57;;
56319;SDS011;42226;42.382;23.748;2024-02-26T06:46:14;14.25;;;12.80;;
56319;SDS011;42226;42.382;23.748;2024-02-26T06:48:43;14.75;;;12.88;;
56319;SDS011;42226;42.382;23.748;2024-02-26T06:51:10;14.35;;;12.48;;
56319;SDS011;42226;42.382;23.748;2024-02-26T06:53:37;18.73;;;14.02;;
56319;SDS011;42226;42.382;23.748;2024-02-26T06:56:04;16.88;;;15.27;;
56319;SDS011;42226;42.382;23.748;2024-02-26T06:58:32;16.73;;;13.52;;
56319;SDS011;42226;42.382;23.748;2024-02-26T07:00:59;17.35;;;14.20;;
56319;SDS011;42226;42.382;23.748;2024-02-26T07:03:26;15.60;;;13.10;;
56319;SDS011;42226;42.382;23.748;2024-02-26T07:05:55;17.67;;;14.88;;
56319;SDS011;42226;42.382;23.748;2024-02-26T07:08:23;16.42;;;14.73;;
56319;SDS011;42226;42.382;23.748;2024-02-26T07:10:51;19.75;;;15.05;;
56319;SDS011;42226;42.382;23.748;2024-02-26T07:13:18;17.00;;;15.30;;
56319;SDS011;42226;42.382;23.748;2024-02-26T07:15:46;19.90;;;14.05;;
56319;SDS011;42226;42.382;23.748;2024-02-26T07:18:14;17.45;;;15.50;;
56319;SDS011;42226;42.382;23.748;2024-02-26T07:20:42;19.40;;;16.30;;
56319;SDS011;42226;42.382;23.748;2024-02-26T07:23:08;16.48;;;14.75;;
56319;SDS011;42226;42.382;23.748;2024-02-26T07:25:37;18.17;;;15.52;;
56319;SDS011;42226;42.382;23.748;2024-02-26T07:28:03;17.67;;;15.50;;
56319;SDS011;42226;42.382;23.748;2024-02-26T07:30:31;17.00;;;14.20;;
56319;SDS011;42226;42.382;23.748;2024-02-26T07:32:59;18.70;;;15.32;;
56319;SDS011;42226;42.382;23.748;2024-02-26T07:35:26;19.20;;;17.38;;
56319;SDS011;42226;42.382;23.748;2024-02-26T07:37:54;18.52;;;15.38;;
56319;SDS011;42226;42.382;23.748;2024-02-26T07:40:21;21.05;;;18.95;;
56319;SDS011;42226;42.382;23.748;2024-02-26T07:42:48;17.08;;;15.27;;
56319;SDS011;42226;42.382;23.748;2024-02-26T07:45:15;20.17;;;16.10;;
56319;SDS011;42226;42.382;23.748;2024-02-26T07:47:46;19.42;;;17.52;;
56319;SDS011;42226;42.382;23.748;2024-02-26T07:50:13;16.77;;;15.05;;
56319;SDS011;42226;42.382;23.748;2024-02-26T07:52:40;19.42;;;17.38;;
56319;SDS011;42226;42.382;23.748;2024-02-26T07:55:07;20.15;;;18.08;;
56319;SDS011;42226;42.382;23.748;2024-02-26T07:57:35;18.70;;;15.30;;
56319;SDS011;42226;42.382;23.748;2024-02-26T08:00:03;21.23;;;19.00;;
56319;SDS011;42226;42.382;23.748;2024-02-26T08:02:36;22.70;;;20.50;;
56319;SDS011;42226;42.382;23.748;2024-02-26T08:08:45;17.75;;;15.82;;
56319;SDS011;42226;42.382;23.748;2024-02-26T08:11:14;22.17;;;19.88;;
56319;SDS011;42226;42.382;23.748;2024-02-26T08:13:41;20.17;;;18.35;;
56319;SDS011;42226;42.382;23.748;2024-02-26T08:16:09;19.75;;;17.92;;
56319;SDS011;42226;42.382;23.748;2024-02-26T08:18:36;18.10;;;15.93;;
56319;SDS011;42226;42.382;23.748;2024-02-26T08:21:04;19.58;;;17.77;;
56319;SDS011;42226;42.382;23.748;2024-02-26T08:23:31;19.73;;;17.92;;
56319;SDS011;42226;42.382;23.748;2024-02-26T08:25:59;19.10;;;17.25;;
56319;SDS011;42226;42.382;23.748;2024-02-26T08:28:26;18.40;;;16.70;;
56319;SDS011;42226;42.382;23.748;2024-02-26T08:30:54;18.73;;;17.13;;
56319;SDS011;42226;42.382;23.748;2024-02-26T08:33:21;15.30;;;13.70;;
56319;SDS011;42226;42.382;23.748;2024-02-26T08:35:48;16.58;;;14.88;;
56319;SDS011;42226;42.382;23.748;2024-02-26T08:38:22;17.08;;;15.38;;
56319;SDS011;42226;42.382;23.748;2024-02-26T08:40:50;20.05;;;18.25;;
56319;SDS011;42226;42.382;23.748;2024-02-26T08:43:17;20.88;;;18.85;;
56319;SDS011;42226;42.382;23.748;2024-02-26T08:45:45;19.75;;;17.95;;
56319;SDS011;42226;42.382;23.748;2024-02-26T08:48:12;19.50;;;17.70;;
56319;SDS011;42226;42.382;23.748;2024-02-26T08:50:38;19.35;;;16.02;;
56319;SDS011;42226;42.382;23.748;2024-02-26T08:53:06;19.90;;;17.77;;
56319;SDS011;42226;42.382;23.748;2024-02-26T08:55:33;18.23;;;16.30;;
56319;SDS011;42226;42.382;23.748;2024-02-26T08:58:00;16.83;;;15.32;;
56319;SDS011;42226;42.382;23.748;2024-02-26T09:00:27;18.52;;;16.88;;
56319;SDS011;42226;42.382;23.748;2024-02-26T09:02:55;18.20;;;16.60;;
56319;SDS011;42226;42.382;23.748;2024-02-26T09:05:22;17.35;;;15.43;;
56319;SDS011;42226;42.382;23.748;2024-02-26T09:07:49;18.48;;;16.67;;
56319;SDS011;42226;42.382;23.748;2024-02-26T09:10:18;17.58;;;16.08;;
56319;SDS011;42226;42.382;23.748;2024-02-26T09:18:46;17.63;;;15.73;;
56319;SDS011;42226;42.382;23.748;2024-02-26T09:21:14;16.38;;;14.98;;
56319;SDS011;42226;42.382;23.748;2024-02-26T09:23:44;16.63;;;15.23;;
56319;SDS011;42226;42.382;23.748;2024-02-26T09:26:12;16.52;;;14.80;;
56319;SDS011;42226;42.382;23.748;2024-02-26T09:28:39;17.25;;;15.70;;
56319;SDS011;42226;42.382;23.748;2024-02-26T09:31:07;17.13;;;15.63;;
56319;SDS011;42226;42.382;23.748;2024-02-26T09:33:33;16.63;;;15.05;;
56319;SDS011;42226;42.382;23.748;2024-02-26T09:36:02;18.88;;;16.95;;
56319;SDS011;42226;42.382;23.748;2024-02-26T09:38:31;18.58;;;16.88;;
56319;SDS011;42226;42.382;23.748;2024-02-26T09:41:02;18.02;;;16.38;;
56319;SDS011;42226;42.382;23.748;2024-02-26T09:43:33;18.08;;;16.42;;
56319;SDS011;42226;42.382;23.748;2024-02-26T09:46:06;18.93;;;17.03;;
56319;SDS011;42226;42.382;23.748;2024-02-26T09:48:33;18.13;;;16.60;;
56319;SDS011;42226;42.382;23.748;2024-02-26T09:51:02;17.80;;;16.15;;
56319;SDS011;42226;42.382;23.748;2024-02-26T09:53:29;17.92;;;16.15;;
56319;SDS011;42226;42.382;23.748;2024-02-26T09:55:58;18.85;;;16.88;;
56319;SDS011;42226;42.382;23.748;2024-02-26T09:58:25;18.38;;;16.70;;
56319;SDS011;42226;42.382;23.748;2024-02-26T10:00:56;18.63;;;16.77;;
56319;SDS011;42226;42.382;23.748;2024-02-26T10:03:30;19.40;;;17.40;;
56319;SDS011;42226;42.382;23.748;2024-02-26T10:06:05;18.65;;;16.60;;
56319;SDS011;42226;42.382;23.748;2024-02-26T10:08:34;18.00;;;16.25;;
56319;SDS011;42226;42.382;23.748;2024-02-26T10:11:05;17.55;;;16.05;;
56319;SDS011;42226;42.382;23.748;2024-02-26T10:16:21;17.13;;;15.55;;
56319;SDS011;42226;42.382;23.748;2024-02-26T10:18:51;17.40;;;15.60;;
56319;SDS011;42226;42.382;23.748;2024-02-26T10:21:33;16.60;;;14.93;;
56319;SDS011;42226;42.382;23.748;2024-02-26T10:24:02;17.40;;;15.73;;
56319;SDS011;42226;42.382;23.748;2024-02-26T10:26:29;16.73;;;15.23;;
56319;SDS011;42226;42.382;23.748;2024-02-26T10:28:59;18.05;;;15.32;;
56319;SDS011;42226;42.382;23.748;2024-02-26T10:31:27;16.90;;;15.18;;
56319;SDS011;42226;42.382;23.748;2024-02-26T10:33:55;16.80;;;15.10;;
56319;SDS011;42226;42.382;23.748;2024-02-26T10:36:23;17.70;;;16.10;;
56319;SDS011;42226;42.382;23.748;2024-02-26T10:42:33;15.98;;;14.27;;
56319;SDS011;42226;42.382;23.748;2024-02-26T10:55:06;14.23;;;12.82;;
56319;SDS011;42226;42.382;23.748;2024-02-26T11:04:19;12.73;;;11.52;;
56319;SDS011;42226;42.382;23.748;2024-02-26T11:06:47;12.15;;;11.05;;
56319;SDS011;42226;42.382;23.748;2024-02-26T11:09:15;12.30;;;11.30;;
56319;SDS011;42226;42.382;23.748;2024-02-26T11:11:48;11.65;;;10.57;;
56319;SDS011;42226;42.382;23.748;2024-02-26T11:17:20;11.98;;;10.75;;
56319;SDS011;42226;42.382;23.748;2024-02-26T11:19:51;10.27;;;9.30;;
56319;SDS011;42226;42.382;23.748;2024-02-26T11:22:22;11.35;;;10.35;;
56319;SDS011;42226;42.382;23.748;2024-02-26T11:24:51;12.93;;;11.02;;
56319;SDS011;42226;42.382;23.748;2024-02-26T11:27:21;11.80;;;10.00;;
56319;SDS011;42226;42.382;23.748;2024-02-26T11:29:56;10.98;;;9.85;;
56319;SDS011;42226;42.382;23.748;2024-02-26T11:32:28;10.93;;;9.82;;
56319;SDS011;42226;42.382;23.748;2024-02-26T11:34:59;10.40;;;9.40;;
56319;SDS011;42226;42.382;23.748;2024-02-26T11:40:49;9.77;;;8.82;;
56319;SDS011;42226;42.382;23.748;2024-02-26T11:43:18;13.20;;;9.02;;
56319;SDS011;42226;42.382;23.748;2024-02-26T11:46:05;9.95;;;9.02;;
56319;SDS011;42226;42.382;23.748;2024-02-26T11:55:36;8.30;;;7.50;;
56319;SDS011;42226;42.382;23.748;2024-02-26T11:58:04;8.52;;;7.63;;
56319;SDS011;42226;42.382;23.748;2024-02-26T12:00:32;8.10;;;7.40;;
56319;SDS011;42226;42.382;23.748;2024-02-26T12:08:46;7.85;;;7.15;;
56319;SDS011;42226;42.382;23.748;2024-02-26T12:14:59;7.07;;;6.38;;
56319;SDS011;42226;42.382;23.748;2024-02-26T12:17:28;6.85;;;6.22;;
56319;SDS011;42226;42.382;23.748;2024-02-26T12:19:55;7.50;;;6.90;;
56319;SDS011;42226;42.382;23.748;2024-02-26T12:22:37;7.22;;;6.43;;
56319;SDS011;42226;42.382;23.748;2024-02-26T12:25:11;7.82;;;7.05;;
56319;SDS011;42226;42.382;23.748;2024-02-26T12:27:41;7.93;;;6.90;;
56319;SDS011;42226;42.382;23.748;2024-02-26T12:33:38;7.03;;;6.32;;
56319;SDS011;42226;42.382;23.748;2024-02-26T12:36:05;7.00;;;6.45;;
56319;SDS011;42226;42.382;23.748;2024-02-26T12:38:34;6.38;;;5.88;;
56319;SDS011;42226;42.382;23.748;2024-02-26T12:41:02;7.22;;;6.60;;
56319;SDS011;42226;42.382;23.748;2024-02-26T12:43:28;7.47;;;6.72;;
56319;SDS011;42226;42.382;23.748;2024-02-26T12:45:56;7.65;;;6.57;;
56319;SDS011;42226;42.382;23.748;2024-02-26T12:48:23;7.75;;;6.97;;
56319;SDS011;42226;42.382;23.748;2024-02-26T12:50:50;8.55;;;7.38;;
56319;SDS011;42226;42.382;23.748;2024-02-26T12:56:36;7.85;;;7.15;;
56319;SDS011;42226;42.382;23.748;2024-02-26T12:59:04;7.93;;;7.18;;
56319;SDS011;42226;42.382;23.748;2024-02-26T13:01:32;7.50;;;6.75;;
56319;SDS011;42226;42.382;23.748;2024-02-26T13:03:59;7.88;;;7.25;;
56319;SDS011;42226;42.382;23.748;2024-02-26T13:06:32;8.23;;;7.43;;
56319;SDS011;42226;42.382;23.748;2024-02-26T13:12:16;8.75;;;7.95;;
56319;SDS011;42226;42.382;23.748;2024-02-26T13:14:43;8.95;;;8.02;;
56319;SDS011;42226;42.382;23.748;2024-02-26T13:20:29;8.18;;;7.47;;
56319;SDS011;42226;42.382;23.748;2024-02-26T13:23:01;8.10;;;7.40;;
56319;SDS011;42226;42.382;23.748;2024-02-26T13:25:33;7.85;;;7.10;;
56319;SDS011;42226;42.382;23.748;2024-02-26T13:28:17;8.25;;;7.43;;
56319;SDS011;42226;42.382;23.748;2024-02-26T13:34:11;8.63;;;7.68;;
56319;SDS011;42226;42.382;23.748;2024-02-26T13:36:53;10.30;;;8.00;;
56319;SDS011;42226;42.382;23.748;2024-02-26T13:39:25;8.15;;;7.30;;
56319;SDS011;42226;42.382;23.748;2024-02-26T13:47:36;8.73;;;7.95;;
56319;SDS011;42226;42.382;23.748;2024-02-26T13:50:03;9.30;;;7.60;;
56319;SDS011;42226;42.382;23.748;2024-02-26T13:52:43;8.05;;;7.32;;
56319;SDS011;42226;42.382;23.748;2024-02-26T13:55:11;7.45;;;6.85;;
56319;SDS011;42226;42.382;23.748;2024-02-26T14:00:28;8.48;;;7.70;;
56319;SDS011;42226;42.382;23.748;2024-02-26T14:09:31;8.05;;;7.32;;
56319;SDS011;42226;42.382;23.748;2024-02-26T14:12:10;7.13;;;6.43;;
56319;SDS011;42226;42.382;23.748;2024-02-26T14:14:36;7.30;;;6.60;;
56319;SDS011;42226;42.382;23.748;2024-02-26T14:20:03;8.50;;;7.70;;
56319;SDS011;42226;42.382;23.748;2024-02-26T14:22:31;7.80;;;7.03;;
56319;SDS011;42226;42.382;23.748;2024-02-26T14:24:59;8.25;;;7.55;;
56319;SDS011;42226;42.382;23.748;2024-02-26T14:27:27;8.05;;;7.35;;
56319;SDS011;42226;42.382;23.748;2024-02-26T14:29:54;8.48;;;7.45;;
56319;SDS011;42226;42.382;23.748;2024-02-26T14:32:22;8.30;;;7.60;;
56319;SDS011;42226;42.382;23.748;2024-02-26T14:34:51;8.55;;;7.22;;
56319;SDS011;42226;42.382;23.748;2024-02-26T14:37:26;9.77;;;7.93;;
56319;SDS011;42226;42.382;23.748;2024-02-26T14:40:02;8.85;;;8.10;;
56319;SDS011;42226;42.382;23.748;2024-02-26T14:44:56;8.55;;;7.85;;
56319;SDS011;42226;42.382;23.748;2024-02-26T14:47:24;8.57;;;7.78;;
56319;SDS011;42226;42.382;23.748;2024-02-26T14:49:51;8.57;;;7.55;;
56319;SDS011;42226;42.382;23.748;2024-02-26T14:52:18;8.70;;;7.82;;
56319;SDS011;42226;42.382;23.748;2024-02-26T14:54:45;8.85;;;7.43;;
56319;SDS011;42226;42.382;23.748;2024-02-26T15:00:32;9.57;;;7.72;;
56319;SDS011;42226;42.382;23.748;2024-02-26T15:03:16;9.75;;;7.38;;
56319;SDS011;42226;42.382;23.748;2024-02-26T15:05:44;8.05;;;7.28;;
56319;SDS011;42226;42.382;23.748;2024-02-26T15:08:26;12.93;;;7.93;;
56319;SDS011;42226;42.382;23.748;2024-02-26T15:19:50;8.75;;;7.90;;
56319;SDS011;42226;42.382;23.748;2024-02-26T15:22:16;9.15;;;8.18;;
56319;SDS011;42226;42.382;23.748;2024-02-26T15:24:44;9.63;;;8.63;;
56319;SDS011;42226;42.382;23.748;2024-02-26T15:27:14;8.63;;;7.75;;
56319;SDS011;42226;42.382;23.748;2024-02-26T15:29:42;8.90;;;8.00;;
56319;SDS011;42226;42.382;23.748;2024-02-26T15:32:10;8.88;;;8.07;;
56319;SDS011;42226;42.382;23.748;2024-02-26T15:37:29;9.52;;;7.93;;
56319;SDS011;42226;42.382;23.748;2024-02-26T15:40:14;8.75;;;7.85;;
56319;SDS011;42226;42.382;23.748;2024-02-26T15:46:22;8.60;;;7.65;;
56319;SDS011;42226;42.382;23.748;2024-02-26T15:48:50;8.80;;;8.00;;
56319;SDS011;42226;42.382;23.748;2024-02-26T15:51:24;12.75;;;7.78;;
56319;SDS011;42226;42.382;23.748;2024-02-26T15:56:40;8.88;;;7.75;;
56319;SDS011;42226;42.382;23.748;2024-02-26T16:02:16;11.05;;;8.10;;
56319;SDS011;42226;42.382;23.748;2024-02-26T16:08:27;10.55;;;8.15;;
56319;SDS011;42226;42.382;23.748;2024-02-26T16:10:55;8.70;;;7.90;;
56319;SDS011;42226;42.382;23.748;2024-02-26T16:13:22;16.58;;;8.27;;
56319;SDS011;42226;42.382;23.748;2024-02-26T16:15:53;9.25;;;7.63;;
56319;SDS011;42226;42.382;23.748;2024-02-26T16:18:46;11.55;;;9.02;;
56319;SDS011;42226;42.382;23.748;2024-02-26T16:24:58;9.18;;;8.27;;
56319;SDS011;42226;42.382;23.748;2024-02-26T16:29:52;11.55;;;9.55;;
56319;SDS011;42226;42.382;23.748;2024-02-26T16:35:25;15.77;;;12.05;;
56319;SDS011;42226;42.382;23.748;2024-02-26T16:37:53;11.90;;;10.70;;
56319;SDS011;42226;42.382;23.748;2024-02-26T16:40:21;19.88;;;15.52;;
56319;SDS011;42226;42.382;23.748;2024-02-26T16:42:48;34.20;;;25.88;;
56319;SDS011;42226;42.382;23.748;2024-02-26T16:45:21;23.02;;;19.73;;
56319;SDS011;42226;42.382;23.748;2024-02-26T16:47:49;13.20;;;11.15;;